createdAt,value
2019-06-20T00:04:51.870Z,42.67
2019-06-20T00:09:53.685Z,47.70
2019-06-20T00:14:56.665Z,46.40
2019-06-20T00:19:58.717Z,50.53
2019-06-20T00:25:05.910Z,56.63
2019-06-20T00:30:08.487Z,63.93
2019-06-20T00:35:12.028Z,60.40
2019-06-20T00:40:15.564Z,68.33
2019-06-20T00:45:18.449Z,64.83
2019-06-20T00:50:20.151Z,73.83
2019-06-20T00:55:24.935Z,69.40
2019-06-20T01:00:30.327Z,71.40
2019-06-20T01:05:32.843Z,83.43
2019-06-20T01:10:39.928Z,70.60
2019-06-20T01:15:43.165Z,77.17
2019-06-20T01:20:46.408Z,73.77
2019-06-20T01:25:51.000Z,70.13
2019-06-20T01:30:54.198Z,69.80
2019-06-20T01:35:57.307Z,82.40
2019-06-20T01:41:06.259Z,85.93
2019-06-20T01:46:08.396Z,69.80
2019-06-20T01:51:11.938Z,68.30
2019-06-20T01:56:16.035Z,65.27
2019-06-20T02:01:17.886Z,70.70
2019-06-20T02:06:19.950Z,65.07
2019-06-20T02:11:21.676Z,66.10
2019-06-20T02:16:28.202Z,70.57
2019-06-20T02:21:32.755Z,66.03
2019-06-20T02:26:34.604Z,70.23
2019-06-20T02:31:36.318Z,71.83
2019-06-20T02:36:40.550Z,71.43
2019-06-20T02:41:42.820Z,68.53
2019-06-20T02:46:46.439Z,66.50
2019-06-20T02:51:49.865Z,72.27
2019-06-20T02:56:55.707Z,67.47
2019-06-20T03:01:57.707Z,59.57
2019-06-20T03:07:00.716Z,61.00
2019-06-20T03:12:05.048Z,63.93
2019-06-20T03:17:09.608Z,78.43
2019-06-20T03:22:12.597Z,65.37
2019-06-20T03:27:14.644Z,61.63
2019-06-20T03:32:17.884Z,67.00
2019-06-20T03:37:19.591Z,74.67
2019-06-20T03:42:21.456Z,61.07
2019-06-20T03:47:24.363Z,67.03
2019-06-20T03:52:26.215Z,63.90
2019-06-20T03:57:28.608Z,68.20
2019-06-20T04:02:33.470Z,62.07
2019-06-20T04:07:36.106Z,72.20
2019-06-20T04:12:40.421Z,62.43
2019-06-20T04:17:42.791Z,60.00
2019-06-20T04:22:44.481Z,64.40
2019-06-20T04:27:46.385Z,63.80
2019-06-20T04:32:53.699Z,60.63
2019-06-20T04:37:59.193Z,60.80
2019-06-20T04:43:01.310Z,52.90
2019-06-20T04:48:03.178Z,58.97
2019-06-20T04:53:06.577Z,56.63
2019-06-20T04:58:11.831Z,60.07
2019-06-20T05:03:15.155Z,61.93
2019-06-20T05:08:18.395Z,60.20
2019-06-20T05:13:24.012Z,76.67
2019-06-20T05:18:25.753Z,60.90
2019-06-20T05:23:30.804Z,60.43
2019-06-20T05:28:32.595Z,55.37
2019-06-20T05:33:39.402Z,55.50
2019-06-20T05:38:41.253Z,49.77
2019-06-20T05:43:45.947Z,47.50
2019-06-20T05:48:47.668Z,45.57
2019-06-20T05:53:51.693Z,42.30
2019-06-20T05:58:53.260Z,41.57
2019-06-20T06:03:56.424Z,35.20
2019-06-20T06:08:59.072Z,36.00
2019-06-20T06:14:00.894Z,34.80
2019-06-20T06:19:07.588Z,36.97
2019-06-20T06:24:10.496Z,43.60
2019-06-20T06:29:14.004Z,41.97
2019-06-20T06:34:21.875Z,40.87
2019-06-20T06:39:22.887Z,35.37
2019-06-20T06:44:24.795Z,34.00
2019-06-20T06:49:26.682Z,30.90
2019-06-20T06:54:30.606Z,30.37
2019-06-20T06:59:34.600Z,30.90
2019-06-20T07:04:38.158Z,26.20
2019-06-20T07:09:40.194Z,27.40
2019-06-20T07:14:42.940Z,28.00
2019-06-20T07:19:47.262Z,23.60
2019-06-20T07:24:49.242Z,24.77
2019-06-20T07:29:51.027Z,23.50
2019-06-20T07:34:52.836Z,23.13
2019-06-20T07:39:57.203Z,19.30
2019-06-20T07:45:01.542Z,21.40
2019-06-20T07:50:09.577Z,22.20
2019-06-20T07:55:11.836Z,22.13
2019-06-20T08:00:14.132Z,20.33
2019-06-20T08:05:16.834Z,19.13
2019-06-20T08:10:22.590Z,20.57
2019-06-20T08:15:29.699Z,19.20
2019-06-20T08:20:33.936Z,18.53
2019-06-20T08:25:39.929Z,19.77
2019-06-20T08:30:42.015Z,19.33
2019-06-20T08:35:43.817Z,19.83
2019-06-20T08:40:47.802Z,17.50
2019-06-20T08:45:52.422Z,17.10
2019-06-20T08:50:58.531Z,15.63
2019-06-20T08:56:03.204Z,16.10
2019-06-20T09:06:09.832Z,15.17
2019-06-20T09:11:20.220Z,14.90
2019-06-20T09:16:27.144Z,16.43
2019-06-20T09:21:32.239Z,18.00
2019-06-20T09:26:35.689Z,17.23
2019-06-20T09:31:40.210Z,17.67
2019-06-20T09:36:44.988Z,16.90
2019-06-20T09:41:48.327Z,16.77
2019-06-20T09:46:52.882Z,16.47
2019-06-20T09:51:56.668Z,15.57
2019-06-20T09:56:58.653Z,14.73
2019-06-20T10:02:00.464Z,15.37
2019-06-20T10:07:04.114Z,15.63
2019-06-20T10:12:08.561Z,15.27
2019-06-20T10:17:10.572Z,14.27
2019-06-20T10:22:13.590Z,14.57
2019-06-20T10:27:15.442Z,12.77
2019-06-20T10:32:23.867Z,11.80
2019-06-20T10:37:24.657Z,11.70
2019-06-20T10:42:31.350Z,12.40
2019-06-20T10:47:36.086Z,11.90
2019-06-20T10:52:41.017Z,11.30
2019-06-20T10:57:44.550Z,10.27
2019-06-20T11:02:49.170Z,9.87
2019-06-20T11:07:51.269Z,9.60
2019-06-20T11:12:55.993Z,7.57
2019-06-20T11:17:57.188Z,6.93
2019-06-20T11:23:01.221Z,7.23
2019-06-20T11:28:05.857Z,5.73
2019-06-20T11:33:08.137Z,3.33
2019-06-20T11:38:12.257Z,2.87
2019-06-20T11:43:14.079Z,2.80
2019-06-20T11:48:17.155Z,2.50
2019-06-20T11:53:19.495Z,2.73
2019-06-20T11:58:23.513Z,2.50
2019-06-20T12:03:28.609Z,2.60
2019-06-20T12:08:35.321Z,2.70
2019-06-20T12:13:40.410Z,2.83
2019-06-20T12:18:45.185Z,3.33
2019-06-20T12:23:48.987Z,3.70
2019-06-20T12:28:55.466Z,2.80
2019-06-20T12:33:59.360Z,2.70
2019-06-20T12:39:01.765Z,2.70
2019-06-20T12:44:04.681Z,2.90
2019-06-20T12:49:07.274Z,2.90
2019-06-20T12:54:09.085Z,3.40
2019-06-20T12:59:11.217Z,3.40
2019-06-20T13:04:16.205Z,3.30
2019-06-20T13:09:20.148Z,2.97
2019-06-20T13:14:22.175Z,2.90
2019-06-20T13:19:24.265Z,3.20
2019-06-20T13:24:28.575Z,3.33
2019-06-20T13:29:34.462Z,2.70
2019-06-20T13:34:41.240Z,2.93
2019-06-20T13:39:47.742Z,3.73
2019-06-20T13:44:49.847Z,2.60
2019-06-20T13:49:52.330Z,3.90
2019-06-20T13:54:59.015Z,3.40
2019-06-20T14:00:03.811Z,3.40
2019-06-20T14:05:08.132Z,3.13
2019-06-20T14:10:10.166Z,3.50
2019-06-20T14:15:13.282Z,3.10
2019-06-20T14:20:18.239Z,3.40
2019-06-20T14:25:23.014Z,2.83
2019-06-20T14:30:28.545Z,3.20
2019-06-20T14:35:30.411Z,3.30
2019-06-20T14:40:32.237Z,4.13
2019-06-20T14:45:38.121Z,3.53
2019-06-20T14:50:40.078Z,3.93
2019-06-20T14:55:44.245Z,3.13
2019-06-20T15:00:49.792Z,4.27
2019-06-20T15:05:52.676Z,4.30
2019-06-20T15:10:55.837Z,4.37
2019-06-20T15:16:05.057Z,4.23
2019-06-20T15:21:09.410Z,4.77
2019-06-20T15:26:14.130Z,4.23
2019-06-20T15:31:16.884Z,3.83
2019-06-20T15:36:20.723Z,3.57
2019-06-20T15:41:23.306Z,3.93
2019-06-20T15:46:25.421Z,3.57
2019-06-20T15:51:30.142Z,3.70
2019-06-20T15:56:33.941Z,4.23
2019-06-20T16:01:39.116Z,4.20
2019-06-20T16:06:42.428Z,5.13
2019-06-20T16:11:50.561Z,5.00
2019-06-20T16:16:54.435Z,5.17
2019-06-20T16:21:58.565Z,7.27
2019-06-20T16:27:05.056Z,8.70
2019-06-20T16:32:12.809Z,8.87
2019-06-20T16:37:14.943Z,10.97
2019-06-20T16:42:22.279Z,12.43
2019-06-20T16:47:24.889Z,12.93
2019-06-20T16:52:30.440Z,11.47
2019-06-20T16:57:32.228Z,11.83
2019-06-20T17:02:37.327Z,10.27
2019-06-20T17:07:41.710Z,10.90
2019-06-20T17:12:47.187Z,14.03
2019-06-20T17:17:51.651Z,14.13
2019-06-20T17:22:59.242Z,12.90
2019-06-20T17:28:03.929Z,10.53
2019-06-20T17:33:06.591Z,11.67
2019-06-20T17:38:08.455Z,11.43
2019-06-20T17:43:10.261Z,11.57
2019-06-20T17:48:13.861Z,11.60
2019-06-20T17:53:15.642Z,11.40
2019-06-20T17:58:23.278Z,12.60
2019-06-20T18:03:27.196Z,12.37
2019-06-20T18:08:28.886Z,10.73
2019-06-20T18:13:34.605Z,10.70
2019-06-20T18:18:36.443Z,11.87
2019-06-20T18:23:38.553Z,12.50
2019-06-20T18:28:40.295Z,10.63
2019-06-20T18:33:42.233Z,10.70
2019-06-20T18:38:46.155Z,8.53
2019-06-20T18:43:53.068Z,6.83
2019-06-20T18:48:57.981Z,6.37
2019-06-20T18:54:03.508Z,6.07
2019-06-20T18:59:05.328Z,5.93
2019-06-20T19:04:08.331Z,6.40
2019-06-20T19:09:10.128Z,7.37
2019-06-20T19:14:15.072Z,6.30
2019-06-20T19:19:22.069Z,5.70
2019-06-20T19:24:24.461Z,5.13
2019-06-20T19:29:26.859Z,5.40
2019-06-20T19:34:28.696Z,12.07
2019-06-20T19:39:32.057Z,5.87
2019-06-20T19:44:34.005Z,5.53
2019-06-20T19:49:38.873Z,5.93
2019-06-20T19:54:43.674Z,5.90
2019-06-20T19:59:46.323Z,5.47
2019-06-20T20:04:48.735Z,5.83
2019-06-20T20:09:50.506Z,5.63
2019-06-20T20:14:57.134Z,5.97
2019-06-20T20:19:59.269Z,5.50
2019-06-20T20:25:04.770Z,5.70
2019-06-20T20:30:07.130Z,5.70
2019-06-20T20:35:09.594Z,5.27
2019-06-20T20:40:11.615Z,5.53
2019-06-20T20:45:19.815Z,5.13
2019-06-20T20:50:24.392Z,4.80
2019-06-20T20:55:26.251Z,4.93
2019-06-20T21:00:35.399Z,5.40
2019-06-20T21:05:50.668Z,5.43
2019-06-20T21:10:43.939Z,5.10
2019-06-20T21:15:46.399Z,4.20
2019-06-20T21:20:50.906Z,4.27
2019-06-20T21:25:53.580Z,4.73
2019-06-20T21:30:58.899Z,4.10
2019-06-20T21:36:08.440Z,4.30
2019-06-20T21:41:07.289Z,4.10
2019-06-20T21:46:09.451Z,4.70
2019-06-20T21:51:11.520Z,4.80
2019-06-20T21:56:13.650Z,4.77
2019-06-20T22:01:18.922Z,4.90
2019-06-20T22:06:24.288Z,5.30
2019-06-20T22:11:28.307Z,5.27
2019-06-20T22:16:37.542Z,5.30
2019-06-20T22:21:39.334Z,5.13
2019-06-20T22:26:41.299Z,5.37
2019-06-20T22:31:43.102Z,4.83
2019-06-20T22:36:44.924Z,4.87
2019-06-20T22:41:47.995Z,4.63
2019-06-20T22:46:49.796Z,5.03
2019-06-20T22:51:52.220Z,4.67
2019-06-20T22:56:56.672Z,4.77
2019-06-20T23:01:59.389Z,4.97
2019-06-20T23:07:01.306Z,5.20
2019-06-20T23:12:05.168Z,5.03
2019-06-20T23:17:07.302Z,4.60
2019-06-20T23:22:11.037Z,5.67
2019-06-20T23:27:14.439Z,5.50
2019-06-20T23:32:18.266Z,5.40
2019-06-20T23:37:21.657Z,5.20
2019-06-20T23:42:23.621Z,5.00
2019-06-20T23:47:32.377Z,4.80
2019-06-20T23:52:36.612Z,4.63
2019-06-20T23:57:40.609Z,4.67
